sensor_id;sensor_type;location;lat;lon;timestamp;temperature;humidity
2010;DHT22;1008;47.404;8.502;2023-09-30T00:00:01;20.60;99.90
2010;DHT22;1008;47.404;8.502;2023-09-30T00:02:28;20.70;99.90
2010;DHT22;1008;47.404;8.502;2023-09-30T00:04:55;20.70;99.90
2010;DHT22;1008;47.404;8.502;2023-09-30T00:07:22;20.80;99.90
2010;DHT22;1008;47.404;8.502;2023-09-30T00:09:50;20.80;99.90
2010;DHT22;1008;47.404;8.502;2023-09-30T00:12:17;21.00;99.90
2010;DHT22;1008;47.404;8.502;2023-09-30T00:14:44;20.60;99.90
2010;DHT22;1008;47.404;8.502;2023-09-30T00:17:10;20.60;99.90
2010;DHT22;1008;47.404;8.502;2023-09-30T00:19:37;20.50;99.90
2010;DHT22;1008;47.404;8.502;2023-09-30T00:22:04;20.50;99.90
2010;DHT22;1008;47.404;8.502;2023-09-30T00:24:30;20.50;99.90
2010;DHT22;1008;47.404;8.502;2023-09-30T00:26:58;20.50;99.90
2010;DHT22;1008;47.404;8.502;2023-09-30T00:29:25;20.60;99.90
2010;DHT22;1008;47.404;8.502;2023-09-30T00:31:52;20.60;99.90
2010;DHT22;1008;47.404;8.502;2023-09-30T00:34:19;20.50;99.90
2010;DHT22;1008;47.404;8.502;2023-09-30T00:36:46;20.50;99.90
2010;DHT22;1008;47.404;8.502;2023-09-30T00:39:13;20.50;99.90
2010;DHT22;1008;47.404;8.502;2023-09-30T00:41:40;20.50;99.90
2010;DHT22;1008;47.404;8.502;2023-09-30T00:44:08;20.60;99.90
2010;DHT22;1008;47.404;8.502;2023-09-30T00:46:36;20.60;99.90
2010;DHT22;1008;47.404;8.502;2023-09-30T00:49:03;20.60;99.90
2010;DHT22;1008;47.404;8.502;2023-09-30T00:51:31;20.60;99.90
2010;DHT22;1008;47.404;8.502;2023-09-30T00:53:59;20.70;99.90
2010;DHT22;1008;47.404;8.502;2023-09-30T00:56:27;20.70;99.90
2010;DHT22;1008;47.404;8.502;2023-09-30T00:58:55;20.60;99.90
2010;DHT22;1008;47.404;8.502;2023-09-30T01:01:24;20.60;99.90
2010;DHT22;1008;47.404;8.502;2023-09-30T01:03:51;20.60;99.90
2010;DHT22;1008;47.404;8.502;2023-09-30T01:06:18;20.60;99.90
2010;DHT22;1008;47.404;8.502;2023-09-30T01:08:44;20.40;99.90
2010;DHT22;1008;47.404;8.502;2023-09-30T01:11:12;20.30;99.90
2010;DHT22;1008;47.404;8.502;2023-09-30T01:13:39;20.40;99.90
2010;DHT22;1008;47.404;8.502;2023-09-30T01:16:07;20.30;99.90
2010;DHT22;1008;47.404;8.502;2023-09-30T01:18:37;20.40;99.90
2010;DHT22;1008;47.404;8.502;2023-09-30T01:21:06;20.30;99.90
2010;DHT22;1008;47.404;8.502;2023-09-30T01:23:35;20.40;99.90
2010;DHT22;1008;47.404;8.502;2023-09-30T01:26:02;20.30;99.90
2010;DHT22;1008;47.404;8.502;2023-09-30T01:28:30;20.40;99.90
2010;DHT22;1008;47.404;8.502;2023-09-30T01:30:57;20.40;99.90
2010;DHT22;1008;47.404;8.502;2023-09-30T01:33:24;20.30;99.90
2010;DHT22;1008;47.404;8.502;2023-09-30T01:35:51;20.30;99.90
2010;DHT22;1008;47.404;8.502;2023-09-30T01:38:18;20.20;99.90
2010;DHT22;1008;47.404;8.502;2023-09-30T01:40:47;20.20;1.00
2010;DHT22;1008;47.404;8.502;2023-09-30T01:43:14;20.20;1.00
2010;DHT22;1008;47.404;8.502;2023-09-30T01:45:40;20.30;1.00
2010;DHT22;1008;47.404;8.502;2023-09-30T01:48:08;20.30;1.00
2010;DHT22;1008;47.404;8.502;2023-09-30T01:50:36;20.20;1.00
2010;DHT22;1008;47.404;8.502;2023-09-30T01:53:03;20.10;1.00
2010;DHT22;1008;47.404;8.502;2023-09-30T01:55:30;20.10;1.00
2010;DHT22;1008;47.404;8.502;2023-09-30T01:57:58;20.10;1.00
2010;DHT22;1008;47.404;8.502;2023-09-30T02:00:24;20.10;1.00
2010;DHT22;1008;47.404;8.502;2023-09-30T02:02:53;19.90;1.00
2010;DHT22;1008;47.404;8.502;2023-09-30T02:05:21;20.00;1.00
2010;DHT22;1008;47.404;8.502;2023-09-30T02:07:48;20.10;1.00
2010;DHT22;1008;47.404;8.502;2023-09-30T02:10:15;20.10;1.00
2010;DHT22;1008;47.404;8.502;2023-09-30T02:12:42;20.20;1.00
2010;DHT22;1008;47.404;8.502;2023-09-30T02:15:11;20.20;1.00
2010;DHT22;1008;47.404;8.502;2023-09-30T02:17:38;20.10;1.00
2010;DHT22;1008;47.404;8.502;2023-09-30T02:20:06;20.10;1.00
2010;DHT22;1008;47.404;8.502;2023-09-30T02:22:38;20.10;1.00
2010;DHT22;1008;47.404;8.502;2023-09-30T02:25:05;20.00;1.00
2010;DHT22;1008;47.404;8.502;2023-09-30T02:27:33;19.90;1.00
2010;DHT22;1008;47.404;8.502;2023-09-30T02:29:59;20.00;1.00
2010;DHT22;1008;47.404;8.502;2023-09-30T02:32:28;20.10;1.00
2010;DHT22;1008;47.404;8.502;2023-09-30T02:34:55;20.10;1.00
2010;DHT22;1008;47.404;8.502;2023-09-30T02:37:22;20.20;1.00
2010;DHT22;1008;47.404;8.502;2023-09-30T02:39:48;20.10;1.00
2010;DHT22;1008;47.404;8.502;2023-09-30T02:42:15;20.10;1.00
2010;DHT22;1008;47.404;8.502;2023-09-30T02:44:42;20.10;1.00
2010;DHT22;1008;47.404;8.502;2023-09-30T02:47:08;20.10;1.00
2010;DHT22;1008;47.404;8.502;2023-09-30T02:49:37;20.00;1.00
2010;DHT22;1008;47.404;8.502;2023-09-30T02:52:04;20.00;1.00
2010;DHT22;1008;47.404;8.502;2023-09-30T02:54:31;20.00;1.00
2010;DHT22;1008;47.404;8.502;2023-09-30T02:56:58;20.00;1.00
2010;DHT22;1008;47.404;8.502;2023-09-30T02:59:24;20.00;1.00
2010;DHT22;1008;47.404;8.502;2023-09-30T03:01:52;20.10;1.00
2010;DHT22;1008;47.404;8.502;2023-09-30T03:04:19;20.10;1.00
2010;DHT22;1008;47.404;8.502;2023-09-30T03:06:48;20.10;1.00
2010;DHT22;1008;47.404;8.502;2023-09-30T03:09:14;20.00;1.00
2010;DHT22;1008;47.404;8.502;2023-09-30T03:11:41;20.00;1.00
2010;DHT22;1008;47.404;8.502;2023-09-30T03:14:09;20.00;1.00
2010;DHT22;1008;47.404;8.502;2023-09-30T03:16:36;19.70;1.00
2010;DHT22;1008;47.404;8.502;2023-09-30T03:19:04;19.40;1.00
2010;DHT22;1008;47.404;8.502;2023-09-30T03:21:34;19.60;1.00
2010;DHT22;1008;47.404;8.502;2023-09-30T03:24:02;19.60;1.00
2010;DHT22;1008;47.404;8.502;2023-09-30T03:26:29;19.80;1.00
2010;DHT22;1008;47.404;8.502;2023-09-30T03:28:56;19.90;1.00
2010;DHT22;1008;47.404;8.502;2023-09-30T03:31:23;19.90;1.00
2010;DHT22;1008;47.404;8.502;2023-09-30T03:33:50;19.60;1.00
2010;DHT22;1008;47.404;8.502;2023-09-30T03:36:19;19.60;1.00
2010;DHT22;1008;47.404;8.502;2023-09-30T03:38:46;19.60;1.00
2010;DHT22;1008;47.404;8.502;2023-09-30T03:41:14;19.60;1.00
2010;DHT22;1008;47.404;8.502;2023-09-30T03:43:40;19.60;1.00
2010;DHT22;1008;47.404;8.502;2023-09-30T03:46:07;19.70;1.00
2010;DHT22;1008;47.404;8.502;2023-09-30T03:48:34;19.50;1.00
2010;DHT22;1008;47.404;8.502;2023-09-30T03:51:08;19.50;1.00
2010;DHT22;1008;47.404;8.502;2023-09-30T03:53:35;19.60;1.00
2010;DHT22;1008;47.404;8.502;2023-09-30T03:56:01;19.40;1.00
2010;DHT22;1008;47.404;8.502;2023-09-30T03:58:30;19.40;1.00
2010;DHT22;1008;47.404;8.502;2023-09-30T04:00:58;19.40;1.00
2010;DHT22;1008;47.404;8.502;2023-09-30T04:03:25;19.40;1.00
2010;DHT22;1008;47.404;8.502;2023-09-30T04:05:52;19.60;1.00
2010;DHT22;1008;47.404;8.502;2023-09-30T04:08:19;19.60;1.00
2010;DHT22;1008;47.404;8.502;2023-09-30T04:10:47;19.60;1.00
2010;DHT22;1008;47.404;8.502;2023-09-30T04:13:14;19.60;1.00
2010;DHT22;1008;47.404;8.502;2023-09-30T04:15:43;19.70;1.00
2010;DHT22;1008;47.404;8.502;2023-09-30T04:18:12;19.80;1.00
2010;DHT22;1008;47.404;8.502;2023-09-30T04:20:38;19.70;1.00
2010;DHT22;1008;47.404;8.502;2023-09-30T04:23:05;20.00;1.00
2010;DHT22;1008;47.404;8.502;2023-09-30T04:25:32;19.70;1.00
2010;DHT22;1008;47.404;8.502;2023-09-30T04:27:59;19.70;1.00
2010;DHT22;1008;47.404;8.502;2023-09-30T04:30:27;19.60;1.00
2010;DHT22;1008;47.404;8.502;2023-09-30T04:32:56;19.50;1.00
2010;DHT22;1008;47.404;8.502;2023-09-30T04:35:24;19.50;1.00
2010;DHT22;1008;47.404;8.502;2023-09-30T04:37:52;19.50;1.00
2010;DHT22;1008;47.404;8.502;2023-09-30T04:40:18;19.50;1.00
2010;DHT22;1008;47.404;8.502;2023-09-30T04:42:46;19.60;1.00
2010;DHT22;1008;47.404;8.502;2023-09-30T04:45:13;19.60;1.00
2010;DHT22;1008;47.404;8.502;2023-09-30T04:47:42;19.50;1.00
2010;DHT22;1008;47.404;8.502;2023-09-30T04:50:11;19.50;1.00
2010;DHT22;1008;47.404;8.502;2023-09-30T04:52:41;19.00;1.00
2010;DHT22;1008;47.404;8.502;2023-09-30T04:55:10;18.80;11.90
2010;DHT22;1008;47.404;8.502;2023-09-30T04:57:37;18.90;9.20
2010;DHT22;1008;47.404;8.502;2023-09-30T05:00:05;18.90;1.00
2010;DHT22;1008;47.404;8.502;2023-09-30T05:02:36;19.10;1.00
2010;DHT22;1008;47.404;8.502;2023-09-30T05:05:03;19.30;1.00
2010;DHT22;1008;47.404;8.502;2023-09-30T05:07:33;19.30;1.00
2010;DHT22;1008;47.404;8.502;2023-09-30T05:09:59;18.90;1.00
2010;DHT22;1008;47.404;8.502;2023-09-30T05:12:30;19.00;1.00
2010;DHT22;1008;47.404;8.502;2023-09-30T05:14:57;19.00;45.30
2010;DHT22;1008;47.404;8.502;2023-09-30T05:17:23;19.10;34.00
2010;DHT22;1008;47.404;8.502;2023-09-30T05:19:50;19.20;1.00
2010;DHT22;1008;47.404;8.502;2023-09-30T05:22:17;19.20;2.00
2010;DHT22;1008;47.404;8.502;2023-09-30T05:24:49;19.20;4.60
2010;DHT22;1008;47.404;8.502;2023-09-30T05:27:15;19.10;2.20
2010;DHT22;1008;47.404;8.502;2023-09-30T05:29:42;19.20;1.50
2010;DHT22;1008;47.404;8.502;2023-09-30T05:32:09;19.20;1.00
2010;DHT22;1008;47.404;8.502;2023-09-30T05:34:36;18.70;26.60
2010;DHT22;1008;47.404;8.502;2023-09-30T05:37:04;18.80;86.20
2010;DHT22;1008;47.404;8.502;2023-09-30T05:39:30;18.60;99.90
2010;DHT22;1008;47.404;8.502;2023-09-30T05:41:58;18.70;99.90
2010;DHT22;1008;47.404;8.502;2023-09-30T05:44:25;18.80;99.90
2010;DHT22;1008;47.404;8.502;2023-09-30T05:46:52;18.80;99.90
2010;DHT22;1008;47.404;8.502;2023-09-30T05:49:20;18.90;99.90
2010;DHT22;1008;47.404;8.502;2023-09-30T05:51:46;18.90;72.50
2010;DHT22;1008;47.404;8.502;2023-09-30T05:54:13;18.70;99.90
2010;DHT22;1008;47.404;8.502;2023-09-30T05:56:40;18.90;99.90
2010;DHT22;1008;47.404;8.502;2023-09-30T05:59:09;18.90;82.50
2010;DHT22;1008;47.404;8.502;2023-09-30T06:01:37;18.90;37.80
2010;DHT22;1008;47.404;8.502;2023-09-30T06:04:04;18.80;46.40
2010;DHT22;1008;47.404;8.502;2023-09-30T06:06:32;18.80;76.30
2010;DHT22;1008;47.404;8.502;2023-09-30T06:08:59;18.80;82.10
2010;DHT22;1008;47.404;8.502;2023-09-30T06:11:25;18.90;91.60
2010;DHT22;1008;47.404;8.502;2023-09-30T06:13:54;18.80;39.60
2010;DHT22;1008;47.404;8.502;2023-09-30T06:16:22;18.80;94.40
2010;DHT22;1008;47.404;8.502;2023-09-30T06:18:51;18.80;99.90
2010;DHT22;1008;47.404;8.502;2023-09-30T06:21:19;19.20;99.90
2010;DHT22;1008;47.404;8.502;2023-09-30T06:23:46;19.40;99.90
2010;DHT22;1008;47.404;8.502;2023-09-30T06:26:14;19.60;32.70
2010;DHT22;1008;47.404;8.502;2023-09-30T06:28:42;19.90;1.00
2010;DHT22;1008;47.404;8.502;2023-09-30T06:31:09;19.80;1.00
2010;DHT22;1008;47.404;8.502;2023-09-30T06:33:38;19.60;1.00
2010;DHT22;1008;47.404;8.502;2023-09-30T06:36:08;19.60;1.00
2010;DHT22;1008;47.404;8.502;2023-09-30T06:38:36;19.60;1.00
2010;DHT22;1008;47.404;8.502;2023-09-30T06:41:03;19.80;1.00
2010;DHT22;1008;47.404;8.502;2023-09-30T06:43:30;19.60;1.00
2010;DHT22;1008;47.404;8.502;2023-09-30T06:45:57;19.90;1.00
2010;DHT22;1008;47.404;8.502;2023-09-30T06:48:24;20.00;1.00
2010;DHT22;1008;47.404;8.502;2023-09-30T06:50:52;20.00;1.00
2010;DHT22;1008;47.404;8.502;2023-09-30T06:53:19;19.70;1.00
2010;DHT22;1008;47.404;8.502;2023-09-30T06:55:49;19.90;1.00
2010;DHT22;1008;47.404;8.502;2023-09-30T06:58:17;19.70;1.00
2010;DHT22;1008;47.404;8.502;2023-09-30T07:00:47;20.00;1.00
2010;DHT22;1008;47.404;8.502;2023-09-30T07:03:14;19.90;1.00
2010;DHT22;1008;47.404;8.502;2023-09-30T07:05:41;19.60;1.00
2010;DHT22;1008;47.404;8.502;2023-09-30T07:08:09;19.50;1.00
2010;DHT22;1008;47.404;8.502;2023-09-30T07:10:36;19.80;1.00
2010;DHT22;1008;47.404;8.502;2023-09-30T07:13:03;20.30;1.00
2010;DHT22;1008;47.404;8.502;2023-09-30T07:15:32;20.30;1.00
2010;DHT22;1008;47.404;8.502;2023-09-30T07:17:58;20.00;1.00
2010;DHT22;1008;47.404;8.502;2023-09-30T07:20:25;20.10;1.00
2010;DHT22;1008;47.404;8.502;2023-09-30T07:22:52;20.50;1.00
2010;DHT22;1008;47.404;8.502;2023-09-30T07:25:20;20.90;1.00
2010;DHT22;1008;47.404;8.502;2023-09-30T07:27:47;21.10;1.00
2010;DHT22;1008;47.404;8.502;2023-09-30T07:30:14;20.80;1.00
2010;DHT22;1008;47.404;8.502;2023-09-30T07:32:41;20.60;1.00
2010;DHT22;1008;47.404;8.502;2023-09-30T07:35:08;20.50;1.00
2010;DHT22;1008;47.404;8.502;2023-09-30T07:37:35;20.50;1.00
2010;DHT22;1008;47.404;8.502;2023-09-30T07:40:03;20.60;1.00
2010;DHT22;1008;47.404;8.502;2023-09-30T07:42:31;20.50;1.00
2010;DHT22;1008;47.404;8.502;2023-09-30T07:44:59;20.40;1.00
2010;DHT22;1008;47.404;8.502;2023-09-30T07:47:25;20.30;1.00
2010;DHT22;1008;47.404;8.502;2023-09-30T07:49:52;20.40;1.00
2010;DHT22;1008;47.404;8.502;2023-09-30T07:52:19;20.50;1.00
2010;DHT22;1008;47.404;8.502;2023-09-30T07:54:46;20.60;1.00
2010;DHT22;1008;47.404;8.502;2023-09-30T07:57:12;20.80;1.00
2010;DHT22;1008;47.404;8.502;2023-09-30T07:59:41;20.90;1.00
2010;DHT22;1008;47.404;8.502;2023-09-30T08:02:08;21.10;1.00
2010;DHT22;1008;47.404;8.502;2023-09-30T08:04:35;21.00;1.00
2010;DHT22;1008;47.404;8.502;2023-09-30T08:07:02;21.00;1.00
2010;DHT22;1008;47.404;8.502;2023-09-30T08:09:28;20.80;1.00
2010;DHT22;1008;47.404;8.502;2023-09-30T08:11:55;20.70;1.00
2010;DHT22;1008;47.404;8.502;2023-09-30T08:14:22;20.50;1.00
2010;DHT22;1008;47.404;8.502;2023-09-30T08:16:50;20.40;1.00
2010;DHT22;1008;47.404;8.502;2023-09-30T08:19:17;20.40;1.00
2010;DHT22;1008;47.404;8.502;2023-09-30T08:21:46;20.70;1.00
2010;DHT22;1008;47.404;8.502;2023-09-30T08:24:12;20.90;1.00
2010;DHT22;1008;47.404;8.502;2023-09-30T08:26:39;21.10;1.00
2010;DHT22;1008;47.404;8.502;2023-09-30T08:29:06;21.10;1.00
2010;DHT22;1008;47.404;8.502;2023-09-30T08:31:33;21.00;1.00
2010;DHT22;1008;47.404;8.502;2023-09-30T08:34:01;21.00;1.00
2010;DHT22;1008;47.404;8.502;2023-09-30T08:36:29;21.10;1.00
2010;DHT22;1008;47.404;8.502;2023-09-30T08:38:56;21.50;1.00
2010;DHT22;1008;47.404;8.502;2023-09-30T08:41:29;21.80;1.00
2010;DHT22;1008;47.404;8.502;2023-09-30T08:43:59;21.90;1.00
2010;DHT22;1008;47.404;8.502;2023-09-30T08:46:28;21.80;1.00
2010;DHT22;1008;47.404;8.502;2023-09-30T08:48:57;22.10;1.00
2010;DHT22;1008;47.404;8.502;2023-09-30T08:51:26;22.40;1.00
2010;DHT22;1008;47.404;8.502;2023-09-30T08:53:53;22.50;1.00
2010;DHT22;1008;47.404;8.502;2023-09-30T08:56:26;22.60;1.00
2010;DHT22;1008;47.404;8.502;2023-09-30T08:58:56;22.80;1.00
2010;DHT22;1008;47.404;8.502;2023-09-30T09:01:24;22.80;1.00
2010;DHT22;1008;47.404;8.502;2023-09-30T09:03:51;23.20;1.00
2010;DHT22;1008;47.404;8.502;2023-09-30T09:06:19;23.40;1.00
2010;DHT22;1008;47.404;8.502;2023-09-30T09:08:47;23.20;99.90
2010;DHT22;1008;47.404;8.502;2023-09-30T09:11:15;23.00;1.00
2010;DHT22;1008;47.404;8.502;2023-09-30T09:13:46;23.00;1.00
2010;DHT22;1008;47.404;8.502;2023-09-30T09:16:16;23.00;99.90
2010;DHT22;1008;47.404;8.502;2023-09-30T09:18:44;22.90;99.90
2010;DHT22;1008;47.404;8.502;2023-09-30T09:21:13;23.50;99.90
2010;DHT22;1008;47.404;8.502;2023-09-30T09:23:41;23.60;99.90
2010;DHT22;1008;47.404;8.502;2023-09-30T09:26:10;23.50;99.90
2010;DHT22;1008;47.404;8.502;2023-09-30T09:28:37;24.00;99.90
2010;DHT22;1008;47.404;8.502;2023-09-30T09:31:19;24.20;99.90
2010;DHT22;1008;47.404;8.502;2023-09-30T09:33:46;24.20;99.90
2010;DHT22;1008;47.404;8.502;2023-09-30T09:36:14;24.40;99.90
2010;DHT22;1008;47.404;8.502;2023-09-30T09:38:45;24.20;99.90
2010;DHT22;1008;47.404;8.502;2023-09-30T09:41:14;24.20;99.90
2010;DHT22;1008;47.404;8.502;2023-09-30T09:43:42;24.20;99.90
2010;DHT22;1008;47.404;8.502;2023-09-30T09:46:09;23.60;99.90
2010;DHT22;1008;47.404;8.502;2023-09-30T09:48:36;23.50;99.90
2010;DHT22;1008;47.404;8.502;2023-09-30T09:51:04;23.60;99.90
2010;DHT22;1008;47.404;8.502;2023-09-30T09:53:41;23.70;99.90
2010;DHT22;1008;47.404;8.502;2023-09-30T09:56:09;23.30;99.90
2010;DHT22;1008;47.404;8.502;2023-09-30T09:58:39;22.90;99.90
2010;DHT22;1008;47.404;8.502;2023-09-30T10:01:09;22.60;99.90
2010;DHT22;1008;47.404;8.502;2023-09-30T10:03:37;22.50;99.90
2010;DHT22;1008;47.404;8.502;2023-09-30T10:06:04;22.30;99.90
2010;DHT22;1008;47.404;8.502;2023-09-30T10:08:33;22.40;99.90
2010;DHT22;1008;47.404;8.502;2023-09-30T10:11:01;22.20;99.90
2010;DHT22;1008;47.404;8.502;2023-09-30T10:13:54;22.40;99.90
2010;DHT22;1008;47.404;8.502;2023-09-30T10:16:47;22.70;99.90
2010;DHT22;1008;47.404;8.502;2023-09-30T10:19:15;23.20;99.90
2010;DHT22;1008;47.404;8.502;2023-09-30T10:24:43;24.80;99.90
2010;DHT22;1008;47.404;8.502;2023-09-30T10:27:43;25.40;99.90
2010;DHT22;1008;47.404;8.502;2023-09-30T10:30:12;25.90;99.90
2010;DHT22;1008;47.404;8.502;2023-09-30T10:33:09;26.50;99.90
2010;DHT22;1008;47.404;8.502;2023-09-30T10:35:47;26.60;99.90
2010;DHT22;1008;47.404;8.502;2023-09-30T10:38:38;26.80;99.90
2010;DHT22;1008;47.404;8.502;2023-09-30T10:41:08;26.50;99.90
2010;DHT22;1008;47.404;8.502;2023-09-30T10:43:36;26.30;99.90
2010;DHT22;1008;47.404;8.502;2023-09-30T10:46:30;26.30;99.90
2010;DHT22;1008;47.404;8.502;2023-09-30T10:49:15;26.00;99.90
2010;DHT22;1008;47.404;8.502;2023-09-30T10:51:43;25.50;99.90
2010;DHT22;1008;47.404;8.502;2023-09-30T10:54:12;25.00;99.90
2010;DHT22;1008;47.404;8.502;2023-09-30T10:56:39;25.00;99.90
2010;DHT22;1008;47.404;8.502;2023-09-30T10:59:06;24.50;99.90
2010;DHT22;1008;47.404;8.502;2023-09-30T11:01:35;24.10;99.90
2010;DHT22;1008;47.404;8.502;2023-09-30T11:04:03;23.60;99.90
2010;DHT22;1008;47.404;8.502;2023-09-30T11:06:31;23.80;99.90
2010;DHT22;1008;47.404;8.502;2023-09-30T11:09:00;24.30;99.90
2010;DHT22;1008;47.404;8.502;2023-09-30T11:11:35;25.10;99.90
2010;DHT22;1008;47.404;8.502;2023-09-30T11:14:01;25.70;99.90
2010;DHT22;1008;47.404;8.502;2023-09-30T11:16:42;26.20;99.90
2010;DHT22;1008;47.404;8.502;2023-09-30T11:19:09;26.50;99.90
2010;DHT22;1008;47.404;8.502;2023-09-30T11:21:37;26.90;99.90
2010;DHT22;1008;47.404;8.502;2023-09-30T11:24:05;27.30;99.90
2010;DHT22;1008;47.404;8.502;2023-09-30T11:26:33;27.60;99.90
2010;DHT22;1008;47.404;8.502;2023-09-30T11:29:05;27.00;99.90
2010;DHT22;1008;47.404;8.502;2023-09-30T11:31:32;27.40;99.90
2010;DHT22;1008;47.404;8.502;2023-09-30T11:34:01;27.80;99.90
2010;DHT22;1008;47.404;8.502;2023-09-30T11:36:29;27.50;99.90
2010;DHT22;1008;47.404;8.502;2023-09-30T11:38:56;28.00;99.90
2010;DHT22;1008;47.404;8.502;2023-09-30T11:41:32;28.20;99.90
2010;DHT22;1008;47.404;8.502;2023-09-30T11:44:04;28.20;99.90
2010;DHT22;1008;47.404;8.502;2023-09-30T11:46:33;27.50;99.90
2010;DHT22;1008;47.404;8.502;2023-09-30T11:49:27;26.50;99.90
2010;DHT22;1008;47.404;8.502;2023-09-30T11:51:54;26.60;99.90
2010;DHT22;1008;47.404;8.502;2023-09-30T11:54:21;26.40;99.90
2010;DHT22;1008;47.404;8.502;2023-09-30T11:56:48;26.20;99.90
2010;DHT22;1008;47.404;8.502;2023-09-30T11:59:16;25.80;99.90
2010;DHT22;1008;47.404;8.502;2023-09-30T12:01:45;25.40;99.90
2010;DHT22;1008;47.404;8.502;2023-09-30T12:04:15;25.40;99.90
2010;DHT22;1008;47.404;8.502;2023-09-30T12:06:44;25.40;99.90
2010;DHT22;1008;47.404;8.502;2023-09-30T12:09:11;26.00;99.90
2010;DHT22;1008;47.404;8.502;2023-09-30T12:11:40;26.30;99.90
2010;DHT22;1008;47.404;8.502;2023-09-30T12:14:10;26.90;99.90
2010;DHT22;1008;47.404;8.502;2023-09-30T12:16:37;27.00;99.90
2010;DHT22;1008;47.404;8.502;2023-09-30T12:19:04;27.10;99.90
2010;DHT22;1008;47.404;8.502;2023-09-30T12:21:33;27.20;99.90
2010;DHT22;1008;47.404;8.502;2023-09-30T12:24:00;27.10;99.90
2010;DHT22;1008;47.404;8.502;2023-09-30T12:26:27;26.80;99.90
2010;DHT22;1008;47.404;8.502;2023-09-30T12:28:54;26.90;99.90
2010;DHT22;1008;47.404;8.502;2023-09-30T12:31:20;26.50;99.90
2010;DHT22;1008;47.404;8.502;2023-09-30T12:33:47;26.30;99.90
2010;DHT22;1008;47.404;8.502;2023-09-30T12:36:16;26.30;99.90
2010;DHT22;1008;47.404;8.502;2023-09-30T12:38:44;26.40;99.90
2010;DHT22;1008;47.404;8.502;2023-09-30T12:41:11;26.30;99.90
2010;DHT22;1008;47.404;8.502;2023-09-30T12:43:38;25.70;99.90
2010;DHT22;1008;47.404;8.502;2023-09-30T12:46:06;25.40;99.90
2010;DHT22;1008;47.404;8.502;2023-09-30T12:48:33;25.30;99.90
2010;DHT22;1008;47.404;8.502;2023-09-30T12:51:00;25.10;99.90
2010;DHT22;1008;47.404;8.502;2023-09-30T12:53:29;25.00;99.90
2010;DHT22;1008;47.404;8.502;2023-09-30T12:55:57;25.10;99.90
2010;DHT22;1008;47.404;8.502;2023-09-30T12:58:25;25.40;99.90
2010;DHT22;1008;47.404;8.502;2023-09-30T13:00:53;25.70;99.90
2010;DHT22;1008;47.404;8.502;2023-09-30T13:03:20;25.40;99.90
2010;DHT22;1008;47.404;8.502;2023-09-30T13:05:46;25.50;99.90
2010;DHT22;1008;47.404;8.502;2023-09-30T13:08:13;25.00;99.90
2010;DHT22;1008;47.404;8.502;2023-09-30T13:10:40;24.40;99.90
2010;DHT22;1008;47.404;8.502;2023-09-30T13:13:08;24.00;99.90
2010;DHT22;1008;47.404;8.502;2023-09-30T13:15:34;24.30;99.90
2010;DHT22;1008;47.404;8.502;2023-09-30T13:18:03;24.50;99.90
2010;DHT22;1008;47.404;8.502;2023-09-30T13:20:31;24.70;99.90
2010;DHT22;1008;47.404;8.502;2023-09-30T13:22:58;24.80;99.90
2010;DHT22;1008;47.404;8.502;2023-09-30T13:25:26;24.80;99.90
2010;DHT22;1008;47.404;8.502;2023-09-30T13:27:53;24.80;99.90
2010;DHT22;1008;47.404;8.502;2023-09-30T13:30:21;25.20;99.90
2010;DHT22;1008;47.404;8.502;2023-09-30T13:32:48;25.10;99.90
2010;DHT22;1008;47.404;8.502;2023-09-30T13:35:15;25.00;99.90
2010;DHT22;1008;47.404;8.502;2023-09-30T13:37:42;25.20;99.90
2010;DHT22;1008;47.404;8.502;2023-09-30T13:40:09;24.80;99.90
2010;DHT22;1008;47.404;8.502;2023-09-30T13:42:38;24.90;99.90
2010;DHT22;1008;47.404;8.502;2023-09-30T13:45:06;25.20;99.90
2010;DHT22;1008;47.404;8.502;2023-09-30T13:47:35;25.30;99.90
2010;DHT22;1008;47.404;8.502;2023-09-30T13:50:02;25.00;99.90
2010;DHT22;1008;47.404;8.502;2023-09-30T13:52:32;25.00;99.90
2010;DHT22;1008;47.404;8.502;2023-09-30T13:54:59;25.20;99.90
2010;DHT22;1008;47.404;8.502;2023-09-30T13:57:26;25.40;99.90
2010;DHT22;1008;47.404;8.502;2023-09-30T13:59:52;25.30;99.90
2010;DHT22;1008;47.404;8.502;2023-09-30T14:02:19;25.40;99.90
2010;DHT22;1008;47.404;8.502;2023-09-30T14:04:47;25.50;99.90
2010;DHT22;1008;47.404;8.502;2023-09-30T14:07:14;25.60;99.90
2010;DHT22;1008;47.404;8.502;2023-09-30T14:09:43;25.40;99.90
2010;DHT22;1008;47.404;8.502;2023-09-30T14:12:10;25.30;99.90
2010;DHT22;1008;47.404;8.502;2023-09-30T14:14:37;25.30;99.90
2010;DHT22;1008;47.404;8.502;2023-09-30T14:17:04;25.30;99.90
2010;DHT22;1008;47.404;8.502;2023-09-30T14:19:33;25.20;99.90
2010;DHT22;1008;47.404;8.502;2023-09-30T14:22:01;25.30;99.90
2010;DHT22;1008;47.404;8.502;2023-09-30T14:24:29;25.10;99.90
2010;DHT22;1008;47.404;8.502;2023-09-30T14:26:56;24.90;99.90
2010;DHT22;1008;47.404;8.502;2023-09-30T14:29:22;24.60;99.90
2010;DHT22;1008;47.404;8.502;2023-09-30T14:31:50;24.60;99.90
2010;DHT22;1008;47.404;8.502;2023-09-30T14:34:17;24.50;99.90
2010;DHT22;1008;47.404;8.502;2023-09-30T14:36:44;24.50;99.90
2010;DHT22;1008;47.404;8.502;2023-09-30T14:39:12;24.30;99.90
2010;DHT22;1008;47.404;8.502;2023-09-30T14:41:38;24.20;99.90
2010;DHT22;1008;47.404;8.502;2023-09-30T14:44:05;24.20;99.90
2010;DHT22;1008;47.404;8.502;2023-09-30T14:46:33;24.20;99.90
2010;DHT22;1008;47.404;8.502;2023-09-30T14:49:00;24.20;99.90
2010;DHT22;1008;47.404;8.502;2023-09-30T14:51:26;24.40;99.90
2010;DHT22;1008;47.404;8.502;2023-09-30T14:53:53;24.40;99.90
2010;DHT22;1008;47.404;8.502;2023-09-30T14:56:21;24.40;99.90
2010;DHT22;1008;47.404;8.502;2023-09-30T14:58:48;24.30;99.90
2010;DHT22;1008;47.404;8.502;2023-09-30T15:01:15;24.30;99.90
2010;DHT22;1008;47.404;8.502;2023-09-30T15:03:41;24.60;99.90
2010;DHT22;1008;47.404;8.502;2023-09-30T15:06:09;24.60;99.90
2010;DHT22;1008;47.404;8.502;2023-09-30T15:08:36;24.50;99.90
2010;DHT22;1008;47.404;8.502;2023-09-30T15:11:03;24.30;99.90
2010;DHT22;1008;47.404;8.502;2023-09-30T15:13:31;24.20;99.90
2010;DHT22;1008;47.404;8.502;2023-09-30T15:15:58;23.80;99.90
2010;DHT22;1008;47.404;8.502;2023-09-30T15:18:25;23.60;99.90
2010;DHT22;1008;47.404;8.502;2023-09-30T15:20:52;23.60;99.90
2010;DHT22;1008;47.404;8.502;2023-09-30T15:23:19;23.60;99.90
2010;DHT22;1008;47.404;8.502;2023-09-30T15:25:46;23.80;99.90
2010;DHT22;1008;47.404;8.502;2023-09-30T15:28:13;23.70;99.90
2010;DHT22;1008;47.404;8.502;2023-09-30T15:30:41;23.50;99.90
2010;DHT22;1008;47.404;8.502;2023-09-30T15:33:08;23.60;99.90
2010;DHT22;1008;47.404;8.502;2023-09-30T15:35:34;23.60;99.90
2010;DHT22;1008;47.404;8.502;2023-09-30T15:38:01;23.60;99.90
2010;DHT22;1008;47.404;8.502;2023-09-30T15:40:29;23.50;99.90
2010;DHT22;1008;47.404;8.502;2023-09-30T15:42:57;23.70;99.90
2010;DHT22;1008;47.404;8.502;2023-09-30T15:45:24;23.70;99.90
2010;DHT22;1008;47.404;8.502;2023-09-30T15:47:52;23.70;99.90
2010;DHT22;1008;47.404;8.502;2023-09-30T15:50:19;23.60;99.90
2010;DHT22;1008;47.404;8.502;2023-09-30T15:52:46;23.80;99.90
2010;DHT22;1008;47.404;8.502;2023-09-30T15:55:13;23.80;99.90
2010;DHT22;1008;47.404;8.502;2023-09-30T15:57:40;24.00;99.90
2010;DHT22;1008;47.404;8.502;2023-09-30T16:00:10;24.00;99.90
2010;DHT22;1008;47.404;8.502;2023-09-30T16:02:36;24.10;99.90
2010;DHT22;1008;47.404;8.502;2023-09-30T16:05:05;24.00;99.90
2010;DHT22;1008;47.404;8.502;2023-09-30T16:07:32;24.00;99.90
2010;DHT22;1008;47.404;8.502;2023-09-30T16:09:59;23.70;99.90
2010;DHT22;1008;47.404;8.502;2023-09-30T16:12:25;23.60;99.90
2010;DHT22;1008;47.404;8.502;2023-09-30T16:14:52;23.40;99.90